Time;durP1;ratioP1;P1;durP2;ratioP2;P2;SDS_P1;SDS_P2;PMS_P1;PMS_P2;Temp;Humidity;BMP_temperature;BMP_pressure;BME280_temperature;BME280_humidity;BME280_pressure;Samples;Min_cycle;Max_cycle;Signal;HPM_P1;HPM_P2
2024/04/03 00:01:22;0.00;0.00;0.62;0.00;0.00;0.62;4.00;1.60;;;23.40;26.00;;;;;;2236569;62;20359;-65
2024/04/03 00:03:48;0.00;0.00;0.62;0.00;0.00;0.62;3.10;1.30;;;23.40;26.00;;;;;;2235806;62;20372;-65
2024/04/03 00:06:14;0.00;0.00;0.62;0.00;0.00;0.62;3.80;1.60;;;23.40;26.00;;;;;;2236299;62;20384;-65
2024/04/03 00:08:42;0.00;0.00;0.62;0.00;0.00;0.62;1.70;1.10;;;23.40;26.00;;;;;;2236338;62;20360;-65
2024/04/03 00:11:08;0.00;0.00;0.62;0.00;0.00;0.62;2.30;1.10;;;23.40;26.00;;;;;;2235717;62;20363;-65
2024/04/03 00:13:34;0.00;0.00;0.62;0.00;0.00;0.62;2.87;1.60;;;23.40;26.00;;;;;;2236169;62;20391;-66
2024/04/03 00:16:00;0.00;0.00;0.62;0.00;0.00;0.62;2.37;1.27;;;23.40;26.00;;;;;;2235827;61;20379;-65
2024/04/03 00:18:27;0.00;0.00;0.62;0.00;0.00;0.62;2.80;1.37;;;23.40;25.90;;;;;;2235605;62;20757;-66
2024/04/03 00:21:00;0.00;0.00;0.62;0.00;0.00;0.62;2.23;1.47;;;23.40;26.00;;;;;;2236132;62;20359;-66
2024/04/03 00:23:26;0.00;0.00;0.62;0.00;0.00;0.62;4.73;1.50;;;23.40;25.90;;;;;;2236184;62;20383;-65
2024/04/03 00:26:01;0.00;0.00;0.62;0.00;0.00;0.62;3.10;1.63;;;23.40;26.00;;;;;;2235146;62;20442;-66
2024/04/03 00:28:29;0.00;0.00;0.62;0.00;0.00;0.62;2.00;1.07;;;23.40;25.90;;;;;;2236145;62;20355;-66
2024/04/03 00:30:59;0.00;0.00;0.62;0.00;0.00;0.62;1.60;1.00;;;23.40;25.90;;;;;;2236306;62;20363;-67
2024/04/03 00:33:25;0.00;0.00;0.62;0.00;0.00;0.62;4.00;1.53;;;23.40;25.90;;;;;;2235710;62;20863;-66
2024/04/03 00:35:56;0.00;0.00;0.62;0.00;0.00;0.62;6.40;1.43;;;23.40;25.90;;;;;;2235923;62;20391;-66
2024/04/03 00:38:23;0.00;0.00;0.62;0.00;0.00;0.62;2.20;1.70;;;23.40;25.90;;;;;;2236273;62;20904;-66
2024/04/03 00:40:57;0.00;0.00;0.62;0.00;0.00;0.62;3.30;1.57;;;23.40;25.90;;;;;;2235801;62;20398;-66
2024/04/03 00:43:25;0.00;0.00;0.62;0.00;0.00;0.62;3.00;1.27;;;23.40;25.90;;;;;;2236388;62;20411;-65
2024/04/03 00:45:52;0.00;0.00;0.62;0.00;0.00;0.62;2.10;1.13;;;23.40;25.90;;;;;;2236477;62;20797;-65
2024/04/03 00:48:19;0.00;0.00;0.62;0.00;0.00;0.62;3.30;1.70;;;23.40;25.80;;;;;;2235354;62;20952;-66
2024/04/03 00:50:46;0.00;0.00;0.62;0.00;0.00;0.62;2.77;1.30;;;23.50;25.90;;;;;;2235927;62;20414;-66
2024/04/03 00:53:13;0.00;0.00;0.62;0.00;0.00;0.62;3.00;1.30;;;23.40;25.80;;;;;;2235607;62;20443;-65
2024/04/03 00:55:41;0.00;0.00;0.62;0.00;0.00;0.62;2.37;1.40;;;23.50;25.90;;;;;;2235403;62;20383;-66
2024/04/03 00:58:07;0.00;0.00;0.62;0.00;0.00;0.62;4.00;1.70;;;23.50;25.90;;;;;;2235967;62;20372;-65
2024/04/03 01:00:35;0.00;0.00;0.62;0.00;0.00;0.62;2.20;1.50;;;23.50;25.90;;;;;;2236219;62;20451;-66
2024/04/03 01:03:03;0.00;0.00;0.62;0.00;0.00;0.62;2.43;1.20;;;23.50;25.90;;;;;;2235388;62;20390;-66
2024/04/03 01:05:29;0.00;0.00;0.62;0.00;0.00;0.62;3.27;1.83;;;23.50;25.90;;;;;;2235960;62;20391;-66
2024/04/03 01:07:56;0.00;0.00;0.62;0.00;0.00;0.62;2.40;1.23;;;23.50;25.80;;;;;;2236041;62;20347;-65
2024/04/03 01:10:22;0.00;0.00;0.62;0.00;0.00;0.62;2.10;1.20;;;23.40;25.80;;;;;;2235393;62;20370;-67
2024/04/03 01:12:49;0.00;0.00;0.62;0.00;0.00;0.62;2.63;1.73;;;23.50;25.90;;;;;;2235933;62;20823;-66
2024/04/03 01:15:16;0.00;0.00;0.62;0.00;0.00;0.62;2.10;1.20;;;23.50;25.80;;;;;;2236103;62;20378;-67
2024/04/03 01:17:43;0.00;0.00;0.62;0.00;0.00;0.62;3.77;1.53;;;23.50;25.80;;;;;;2235350;62;20371;-66
2024/04/03 01:20:11;0.00;0.00;0.62;0.00;0.00;0.62;2.27;1.27;;;23.50;25.80;;;;;;2236004;62;20462;-66
2024/04/03 01:22:37;0.00;0.00;0.62;0.00;0.00;0.62;2.37;1.33;;;23.50;25.80;;;;;;2235595;62;20407;-65
2024/04/03 01:25:06;0.00;0.00;0.62;0.00;0.00;0.62;2.33;1.67;;;23.40;25.70;;;;;;2235426;62;20387;-65
2024/04/03 01:27:32;0.00;0.00;0.62;0.00;0.00;0.62;4.20;1.40;;;23.50;25.80;;;;;;2235790;62;20414;-66
2024/04/03 01:29:58;0.00;0.00;0.62;0.00;0.00;0.62;2.33;1.20;;;23.50;25.80;;;;;;2235797;62;20355;-66
2024/04/03 01:32:24;0.00;0.00;0.62;0.00;0.00;0.62;2.23;1.53;;;23.50;25.80;;;;;;2235618;62;20355;-65
2024/04/03 01:34:51;0.00;0.00;0.62;0.00;0.00;0.62;2.60;1.00;;;23.40;25.80;;;;;;2235773;62;20391;-66
2024/04/03 01:37:17;0.00;0.00;0.62;0.00;0.00;0.62;3.50;1.30;;;23.40;25.80;;;;;;2235986;62;20364;-66
2024/04/03 01:39:44;0.00;0.00;0.62;0.00;0.00;0.62;2.53;1.10;;;23.40;25.80;;;;;;2235355;62;20363;-66
2024/04/03 01:42:13;0.00;0.00;0.62;0.00;0.00;0.62;3.63;1.30;;;23.40;25.80;;;;;;2235808;62;20366;-66
2024/04/03 01:44:39;0.00;0.00;0.62;0.00;0.00;0.62;2.10;1.23;;;23.40;25.80;;;;;;2235667;62;21011;-66
2024/04/03 01:47:05;0.00;0.00;0.62;0.00;0.00;0.62;2.47;1.23;;;23.40;25.80;;;;;;2235443;62;20374;-66
2024/04/03 01:49:32;0.00;0.00;0.62;0.00;0.00;0.62;2.23;1.40;;;23.40;25.80;;;;;;2231838;61;20371;-66
2024/04/03 01:51:58;0.00;0.00;0.62;0.00;0.00;0.62;3.60;1.10;;;23.40;25.80;;;;;;2235925;62;20355;-66
2024/04/03 01:54:24;0.00;0.00;0.62;0.00;0.00;0.62;1.60;1.00;;;23.40;25.80;;;;;;2235448;62;20509;-66
2024/04/03 01:56:50;0.00;0.00;0.62;0.00;0.00;0.62;1.90;1.17;;;23.40;25.80;;;;;;2234251;62;20391;-65
2024/04/03 01:59:18;0.00;0.00;0.62;0.00;0.00;0.62;2.30;1.30;;;23.40;25.80;;;;;;2236159;62;20823;-66
2024/04/03 02:01:44;0.00;0.00;0.62;0.00;0.00;0.62;2.83;1.47;;;23.40;25.80;;;;;;2235995;62;20462;-66
2024/04/03 02:04:10;0.00;0.00;0.62;0.00;0.00;0.62;4.07;1.47;;;23.40;25.80;;;;;;2235462;62;20386;-66
2024/04/03 02:06:36;0.00;0.00;0.62;0.00;0.00;0.62;2.47;1.40;;;23.40;25.80;;;;;;2236196;62;20363;-67
2024/04/03 02:09:03;0.00;0.00;0.62;0.00;0.00;0.62;2.07;1.40;;;23.40;25.80;;;;;;2235547;62;20363;-66
2024/04/03 02:11:29;0.00;0.00;0.62;0.00;0.00;0.62;5.30;1.50;;;23.40;26.30;;;;;;2235936;62;20450;-66
2024/04/03 02:13:56;0.00;0.00;0.62;0.00;0.00;0.62;2.43;1.30;;;23.40;25.80;;;;;;2235681;62;20391;-66
2024/04/03 02:16:24;0.00;0.00;0.62;0.00;0.00;0.62;2.70;1.30;;;23.40;25.80;;;;;;2235811;62;20844;-66
2024/04/03 02:18:51;0.00;0.00;0.62;0.00;0.00;0.62;3.27;1.30;;;23.40;25.90;;;;;;2235831;62;20437;-66
2024/04/03 02:21:17;0.00;0.00;0.62;0.00;0.00;0.62;4.57;1.70;;;23.40;25.90;;;;;;2235637;62;20406;-66
2024/04/03 02:23:43;0.00;0.00;0.62;0.00;0.00;0.62;2.23;1.50;;;23.40;26.40;;;;;;2235466;62;20393;-66
2024/04/03 02:26:09;0.00;0.00;0.62;0.00;0.00;0.62;3.30;1.50;;;23.40;25.90;;;;;;2235953;62;20402;-65
2024/04/03 02:28:35;0.00;0.00;0.62;0.00;0.00;0.62;1.93;1.13;;;23.40;25.90;;;;;;2235464;62;20356;-66
2024/04/03 02:31:02;0.00;0.00;0.62;0.00;0.00;0.62;3.30;1.47;;;23.30;25.80;;;;;;2235599;62;20394;-66
2024/04/03 02:33:29;0.00;0.00;0.62;0.00;0.00;0.62;2.80;1.40;;;23.40;25.90;;;;;;2235838;62;20664;-65
2024/04/03 02:35:55;0.00;0.00;0.62;0.00;0.00;0.62;2.87;1.40;;;23.40;25.90;;;;;;2235465;62;20430;-66
2024/04/03 02:38:21;0.00;0.00;0.62;0.00;0.00;0.62;2.70;1.50;;;23.40;25.90;;;;;;2235460;62;20355;-65
2024/04/03 02:40:48;0.00;0.00;0.62;0.00;0.00;0.62;2.30;1.60;;;23.30;25.80;;;;;;2236421;62;20355;-66
2024/04/03 02:43:14;0.00;0.00;0.62;0.00;0.00;0.62;2.30;1.27;;;23.40;25.90;;;;;;2236184;62;20391;-66
2024/04/03 02:45:40;0.00;0.00;0.62;0.00;0.00;0.62;1.83;1.27;;;23.40;25.90;;;;;;2236237;62;20398;-65
2024/04/03 02:48:07;0.00;0.00;0.62;0.00;0.00;0.62;3.20;1.63;;;23.30;25.90;;;;;;2236473;62;20871;-66
2024/04/03 02:50:34;0.00;0.00;0.62;0.00;0.00;0.62;3.10;1.33;;;23.40;25.90;;;;;;2236132;62;20367;-66
2024/04/03 02:53:00;0.00;0.00;0.62;0.00;0.00;0.62;3.33;1.73;;;23.30;25.80;;;;;;2236259;62;20490;-66
2024/04/03 02:55:26;0.00;0.00;0.62;0.00;0.00;0.62;1.93;1.00;;;23.30;25.80;;;;;;2236472;62;20517;-66
2024/04/03 02:57:53;0.00;0.00;0.62;0.00;0.00;0.62;3.37;1.77;;;23.30;25.80;;;;;;2235441;62;20367;-66
2024/04/03 03:00:20;0.00;0.00;0.62;0.00;0.00;0.62;3.77;1.60;;;23.30;25.90;;;;;;2236410;62;20391;-66
2024/04/03 03:02:47;0.00;0.00;0.62;0.00;0.00;0.62;2.33;1.47;;;23.30;25.90;;;;;;2236674;62;20355;-66
2024/04/03 03:05:14;0.00;0.00;0.62;0.00;0.00;0.62;2.30;1.13;;;23.30;25.90;;;;;;2235828;62;20391;-66
2024/04/03 03:07:42;0.00;0.00;0.62;0.00;0.00;0.62;3.00;1.20;;;23.30;25.90;;;;;;2236348;62;20365;-66
2024/04/03 03:10:08;0.00;0.00;0.62;0.00;0.00;0.62;3.03;1.33;;;23.30;25.90;;;;;;2236454;62;21020;-66
2024/04/03 03:12:34;0.00;0.00;0.62;0.00;0.00;0.62;3.37;1.40;;;23.30;25.90;;;;;;2236048;62;20374;-66
2024/04/03 03:15:00;0.00;0.00;0.62;0.00;0.00;0.62;3.10;1.83;;;23.30;25.90;;;;;;2236159;62;20889;-66
2024/04/03 03:17:26;0.00;0.00;0.62;0.00;0.00;0.62;2.27;1.10;;;23.30;25.90;;;;;;2236356;62;20892;-65
2024/04/03 03:19:52;0.00;0.00;0.62;0.00;0.00;0.62;4.20;0.97;;;23.30;25.90;;;;;;2235265;62;20454;-65
2024/04/03 03:22:19;0.00;0.00;0.62;0.00;0.00;0.62;2.93;1.63;;;23.30;25.90;;;;;;2236269;62;20551;-67
2024/04/03 03:24:46;0.00;0.00;0.62;0.00;0.00;0.62;2.43;1.37;;;23.30;25.90;;;;;;2236530;62;20398;-65
2024/04/03 03:27:12;0.00;0.00;0.62;0.00;0.00;0.62;2.50;1.17;;;23.30;25.90;;;;;;2235902;62;20374;-66
2024/04/03 03:29:38;0.00;0.00;0.62;0.00;0.00;0.62;1.87;1.17;;;23.30;25.90;;;;;;2236381;62;20359;-66
2024/04/03 03:32:05;0.00;0.00;0.62;0.00;0.00;0.62;3.03;1.50;;;23.30;25.90;;;;;;2236373;62;20399;-67
2024/04/03 03:34:31;0.00;0.00;0.62;0.00;0.00;0.62;3.20;1.77;;;23.30;25.90;;;;;;2235686;62;20516;-66
2024/04/03 03:36:57;0.00;0.00;0.62;0.00;0.00;0.62;2.27;1.57;;;23.30;25.90;;;;;;2236199;62;20356;-66
2024/04/03 03:39:24;0.00;0.00;0.62;0.00;0.00;0.62;1.90;1.33;;;23.30;25.90;;;;;;2236446;62;20359;-66
2024/04/03 03:41:51;0.00;0.00;0.62;0.00;0.00;0.62;2.60;1.50;;;23.30;25.90;;;;;;2235425;62;20370;-66
2024/04/03 03:44:18;0.00;0.00;0.62;0.00;0.00;0.62;2.17;1.40;;;23.30;25.90;;;;;;2236174;62;20391;-66
2024/04/03 03:46:44;0.00;0.00;0.62;0.00;0.00;0.62;3.20;1.50;;;23.30;25.90;;;;;;2236466;62;20362;-66
2024/04/03 03:54:40;0.00;0.00;0.62;0.00;0.00;0.62;3.80;1.50;;;23.30;25.90;;;;;;2236337;62;20470;-67
2024/04/03 03:57:07;0.00;0.00;0.62;0.00;0.00;0.62;3.90;2.00;;;23.30;26.50;;;;;;2235794;62;20902;-66
2024/04/03 03:59:33;0.00;0.00;0.62;0.00;0.00;0.62;3.73;1.43;;;23.30;25.90;;;;;;2236083;62;20854;-66
2024/04/03 04:01:59;0.00;0.00;0.62;0.00;0.00;0.62;2.97;1.40;;;23.30;26.00;;;;;;2236290;62;20480;-66
2024/04/03 04:04:25;0.00;0.00;0.62;0.00;0.00;0.62;2.20;1.13;;;23.30;25.90;;;;;;2235769;62;20459;-66
2024/04/03 04:06:52;0.00;0.00;0.62;0.00;0.00;0.62;3.50;1.90;;;23.30;26.00;;;;;;2236067;62;20772;-65
2024/04/03 04:09:18;0.00;0.00;0.62;0.00;0.00;0.62;2.90;1.80;;;23.30;25.90;;;;;;2236077;62;20395;-65
2024/04/03 04:11:45;0.00;0.00;0.62;0.00;0.00;0.62;3.80;1.50;;;23.30;26.00;;;;;;2235629;62;20897;-63
2024/04/03 04:14:13;0.00;0.00;0.62;0.00;0.00;0.62;4.00;2.10;;;23.30;26.00;;;;;;2236181;62;20875;-64
2024/04/03 04:16:39;0.00;0.00;0.62;0.00;0.00;0.62;4.30;1.77;;;23.30;26.00;;;;;;2236222;62;20368;-66
2024/04/03 04:19:05;0.00;0.00;0.62;0.00;0.00;0.62;3.33;1.80;;;23.30;26.50;;;;;;2235132;62;20371;-65
2024/04/03 04:21:31;0.00;0.00;0.62;0.00;0.00;0.62;2.20;1.13;;;23.30;26.00;;;;;;2234523;61;20395;-66
2024/04/03 04:23:57;0.00;0.00;0.62;0.00;0.00;0.62;3.13;1.40;;;23.30;26.00;;;;;;2236399;62;20383;-64
2024/04/03 04:26:24;0.00;0.00;0.62;0.00;0.00;0.62;4.27;1.40;;;23.30;26.00;;;;;;2235927;62;20371;-65
2024/04/03 04:28:50;0.00;0.00;0.62;0.00;0.00;0.62;3.40;2.00;;;23.30;26.00;;;;;;2235560;62;20378;-66
2024/04/03 04:31:17;0.00;0.00;0.62;0.00;0.00;0.62;3.27;1.37;;;23.30;26.00;;;;;;2239040;56;20399;-66
2024/04/03 04:33:43;0.00;0.00;0.62;0.00;0.00;0.62;6.03;1.60;;;23.30;26.00;;;;;;2235791;62;20367;-65
2024/04/03 04:36:10;0.00;0.00;0.62;0.00;0.00;0.62;3.13;1.60;;;23.30;25.90;;;;;;2236193;62;20356;-64
2024/04/03 04:38:36;0.00;0.00;0.62;0.00;0.00;0.62;7.33;2.03;;;23.30;25.90;;;;;;2235955;62;20770;-65
2024/04/03 04:41:03;0.00;0.00;0.62;0.00;0.00;0.62;3.30;1.70;;;23.30;26.00;;;;;;2232913;62;20391;-65
2024/04/03 04:43:31;0.00;0.00;0.62;0.00;0.00;0.62;3.23;2.10;;;23.30;25.90;;;;;;2231922;62;20427;-65
2024/04/03 04:45:59;0.00;0.00;0.62;0.00;0.00;0.62;4.83;2.00;;;23.30;26.00;;;;;;2232017;62;21173;-65
2024/04/03 04:48:28;0.00;0.00;0.62;0.00;0.00;0.62;4.17;1.70;;;23.30;26.00;;;;;;2231249;62;20404;-67
2024/04/03 04:50:57;0.00;0.00;0.62;0.00;0.00;0.62;3.50;1.73;;;23.20;25.90;;;;;;2232192;62;20380;-64
2024/04/03 04:53:24;0.00;0.00;0.62;0.00;0.00;0.62;3.70;2.13;;;23.30;25.90;;;;;;2232168;62;20406;-65
2024/04/03 04:55:55;0.00;0.00;0.62;0.00;0.00;0.62;3.67;2.40;;;23.30;26.00;;;;;;2231115;62;20850;-65
2024/04/03 04:58:22;0.00;0.00;0.62;0.00;0.00;0.62;3.53;1.87;;;23.30;25.90;;;;;;2232220;62;20357;-66
2024/04/03 05:00:50;0.00;0.00;0.62;0.00;0.00;0.62;3.70;2.07;;;23.30;25.90;;;;;;2232040;62;20376;-66
2024/04/03 05:03:16;0.00;0.00;0.62;0.00;0.00;0.62;3.57;1.87;;;23.20;25.90;;;;;;2231530;62;20379;-65
2024/04/03 05:05:43;0.00;0.00;0.62;0.00;0.00;0.62;4.03;2.50;;;23.30;25.90;;;;;;2232362;62;20370;-64
2024/04/03 05:08:10;0.00;0.00;0.62;0.00;0.00;0.62;5.57;2.37;;;23.30;25.90;;;;;;2231889;62;20773;-65
2024/04/03 05:10:36;0.00;0.00;0.62;0.00;0.00;0.62;4.83;2.80;;;23.30;25.90;;;;;;2231826;62;20388;-65
2024/04/03 05:13:03;0.00;0.00;0.62;0.00;0.00;0.62;3.50;2.70;;;23.30;25.90;;;;;;2231776;62;20494;-65
2024/04/03 05:15:30;0.00;0.00;0.62;0.00;0.00;0.62;3.00;1.90;;;23.30;26.00;;;;;;2232015;62;20447;-65
2024/04/03 05:17:58;0.00;0.00;0.62;0.00;0.00;0.62;5.13;3.10;;;23.30;25.90;;;;;;2231505;62;20455;-66
2024/04/03 05:20:24;0.00;0.00;0.62;0.00;0.00;0.62;5.47;3.00;;;23.20;25.90;;;;;;2232210;62;20380;-65
2024/04/03 05:22:52;0.00;0.00;0.62;0.00;0.00;0.62;4.37;2.37;;;23.30;26.00;;;;;;2231946;62;20364;-65
2024/04/03 05:25:18;0.00;0.00;0.62;0.00;0.00;0.62;4.50;2.40;;;23.30;26.50;;;;;;2231692;62;20793;-65
2024/04/03 05:27:44;0.00;0.00;0.62;0.00;0.00;0.62;4.33;2.53;;;23.30;26.00;;;;;;2232139;62;20357;-65
2024/04/03 05:30:11;0.00;0.00;0.62;0.00;0.00;0.62;3.00;2.00;;;23.20;25.90;;;;;;2231913;62;20388;-65
2024/04/03 05:32:37;0.00;0.00;0.62;0.00;0.00;0.62;4.70;2.50;;;23.30;26.00;;;;;;2231611;62;20367;-65
2024/04/03 05:35:04;0.00;0.00;0.62;0.00;0.00;0.62;3.83;2.27;;;23.30;26.00;;;;;;2232090;62;20379;-65
2024/04/03 05:37:31;0.00;0.00;0.62;0.00;0.00;0.62;3.53;2.50;;;23.20;25.90;;;;;;2231665;62;20448;-65
2024/04/03 05:39:58;0.00;0.00;0.62;0.00;0.00;0.62;3.43;2.17;;;23.20;25.90;;;;;;2231646;62;20384;-64
2024/04/03 05:42:24;0.00;0.00;0.62;0.00;0.00;0.62;4.73;2.77;;;23.20;25.90;;;;;;2232297;62;21017;-64
2024/04/03 05:44:51;0.00;0.00;0.62;0.00;0.00;0.62;5.13;2.40;;;23.20;25.90;;;;;;2231788;62;20384;-66
2024/04/03 05:47:17;0.00;0.00;0.62;0.00;0.00;0.62;4.60;3.20;;;23.30;26.00;;;;;;2231417;62;20399;-65
2024/04/03 05:49:43;0.00;0.00;0.62;0.00;0.00;0.62;4.07;1.80;;;23.20;25.90;;;;;;2232091;62;20359;-65
2024/04/03 05:52:09;0.00;0.00;0.62;0.00;0.00;0.62;3.20;2.30;;;23.20;25.90;;;;;;2231780;62;20361;-65
2024/04/03 05:54:35;0.00;0.00;0.62;0.00;0.00;0.62;5.13;2.90;;;23.20;25.90;;;;;;2231702;62;20369;-65
2024/04/03 05:57:04;0.00;0.00;0.62;0.00;0.00;0.62;3.70;1.97;;;23.30;26.00;;;;;;2232029;62;20957;-63
2024/04/03 05:59:30;0.00;0.00;0.62;0.00;0.00;0.62;4.80;2.50;;;23.30;26.00;;;;;;2232076;62;20360;-64
2024/04/03 06:01:56;0.00;0.00;0.62;0.00;0.00;0.62;4.00;2.20;;;23.30;26.00;;;;;;2231782;62;20360;-64
2024/04/03 06:04:23;0.00;0.00;0.62;0.00;0.00;0.62;3.97;2.77;;;23.20;25.90;;;;;;2232104;62;20479;-65
2024/04/03 06:06:50;0.00;0.00;0.62;0.00;0.00;0.62;2.97;2.27;;;23.20;25.90;;;;;;2231818;62;20364;-64
2024/04/03 06:09:16;0.00;0.00;0.62;0.00;0.00;0.62;4.07;2.53;;;23.30;26.00;;;;;;2231577;62;20356;-68
2024/04/03 06:11:42;0.00;0.00;0.62;0.00;0.00;0.62;4.37;2.90;;;23.20;25.90;;;;;;2232182;62;20434;-66
2024/04/03 06:14:10;0.00;0.00;0.62;0.00;0.00;0.62;3.77;2.53;;;23.20;25.90;;;;;;2231920;62;20365;-66
2024/04/03 06:16:36;0.00;0.00;0.62;0.00;0.00;0.62;3.30;2.50;;;23.20;26.00;;;;;;2231431;62;20374;-65
2024/04/03 06:19:03;0.00;0.00;0.62;0.00;0.00;0.62;5.47;2.50;;;23.20;26.00;;;;;;2232083;62;20360;-65
2024/04/03 06:21:29;0.00;0.00;0.62;0.00;0.00;0.62;4.63;2.53;;;23.20;26.00;;;;;;2231924;62;20387;-66
2024/04/03 06:23:55;0.00;0.00;0.62;0.00;0.00;0.62;5.90;2.70;;;23.30;26.00;;;;;;2231889;62;20392;-64
2024/04/03 06:26:21;0.00;0.00;0.62;0.00;0.00;0.62;4.57;3.03;;;23.30;26.00;;;;;;2232249;62;20428;-65
2024/04/03 06:28:48;0.00;0.00;0.62;0.00;0.00;0.62;3.53;2.57;;;23.30;26.00;;;;;;2232013;62;20375;-66
2024/04/03 06:31:15;0.00;0.00;0.62;0.00;0.00;0.62;3.27;2.57;;;23.20;26.00;;;;;;2231387;62;20918;-65
2024/04/03 06:33:42;0.00;0.00;0.62;0.00;0.00;0.62;4.17;2.60;;;23.20;26.00;;;;;;2231908;62;20375;-65
2024/04/03 06:36:08;0.00;0.00;0.62;0.00;0.00;0.62;4.03;2.20;;;23.20;26.00;;;;;;2232136;62;20850;-66
2024/04/03 06:38:34;0.00;0.00;0.62;0.00;0.00;0.62;4.13;2.50;;;23.30;26.00;;;;;;2231578;62;20386;-65
2024/04/03 06:41:01;0.00;0.00;0.62;0.00;0.00;0.62;3.70;2.43;;;23.30;26.10;;;;;;2232119;62;20464;-65
2024/04/03 06:43:27;0.00;0.00;0.62;0.00;0.00;0.62;5.63;2.53;;;23.30;26.10;;;;;;2231812;62;20376;-65
2024/04/03 06:45:57;0.00;0.00;0.62;0.00;0.00;0.62;3.97;2.57;;;23.20;26.00;;;;;;2231785;62;20894;-65
2024/04/03 06:48:24;0.00;0.00;0.62;0.00;0.00;0.62;4.73;2.60;;;23.30;26.10;;;;;;2232230;62;20361;-65
2024/04/03 06:50:51;0.00;0.00;0.62;0.00;0.00;0.62;4.60;2.50;;;23.30;26.10;;;;;;2232050;62;20380;-66
2024/04/03 06:53:17;0.00;0.00;0.62;0.00;0.00;0.62;4.17;2.50;;;23.30;26.20;;;;;;2231469;62;20792;-68
2024/04/03 06:55:54;0.00;0.00;0.62;0.00;0.00;0.62;3.77;2.27;;;23.30;26.10;;;;;;2231948;62;20386;-66
2024/04/03 06:58:20;0.00;0.00;0.62;0.00;0.00;0.62;4.03;2.50;;;23.30;26.20;;;;;;2231656;62;20360;-66
2024/04/03 07:00:46;0.00;0.00;0.62;0.00;0.00;0.62;3.50;2.20;;;23.30;26.10;;;;;;2231455;62;20432;-65
2024/04/03 07:03:13;0.00;0.00;0.62;0.00;0.00;0.62;4.07;2.67;;;23.30;26.10;;;;;;2232098;62;20415;-63
2024/04/03 07:05:40;0.00;0.00;0.62;0.00;0.00;0.62;4.20;2.70;;;23.30;26.20;;;;;;2231758;62;20367;-65
2024/04/03 07:08:07;0.00;0.00;0.62;0.00;0.00;0.62;3.90;2.43;;;23.30;26.20;;;;;;2231473;62;20374;-65
2024/04/03 07:10:34;0.00;0.00;0.62;0.00;0.00;0.62;4.17;2.47;;;23.30;26.20;;;;;;2231935;62;20419;-65
2024/04/03 07:13:02;0.00;0.00;0.62;0.00;0.00;0.62;4.17;2.70;;;23.30;26.20;;;;;;2231658;62;20392;-65
2024/04/03 07:15:29;0.00;0.00;0.62;0.00;0.00;0.62;3.80;2.73;;;23.30;26.20;;;;;;2231421;62;20349;-65
2024/04/03 07:17:56;0.00;0.00;0.62;0.00;0.00;0.62;4.93;3.53;;;23.20;26.70;;;;;;2231714;62;20777;-65
2024/04/03 07:20:25;0.00;0.00;0.62;0.00;0.00;0.62;3.87;2.83;;;23.30;26.20;;;;;;2231553;62;20391;-66
2024/04/03 07:22:54;0.00;0.00;0.62;0.00;0.00;0.62;5.00;3.33;;;23.30;26.20;;;;;;2231504;62;20368;-65
2024/04/03 07:25:21;0.00;0.00;0.62;0.00;0.00;0.62;4.73;3.20;;;23.30;26.20;;;;;;2231867;62;20414;-65
2024/04/03 07:27:47;0.00;0.00;0.62;0.00;0.00;0.62;4.70;2.70;;;23.30;26.20;;;;;;2231900;62;20352;-65
2024/04/03 07:30:13;0.00;0.00;0.62;0.00;0.00;0.62;4.70;2.97;;;23.30;26.30;;;;;;2231922;62;20406;-65
2024/04/03 07:32:40;0.00;0.00;0.62;0.00;0.00;0.62;3.50;2.63;;;23.30;26.30;;;;;;2232467;62;20387;-65
2024/04/03 07:35:07;0.00;0.00;0.62;0.00;0.00;0.62;4.33;2.73;;;23.30;26.30;;;;;;2232175;62;20366;-66
2024/04/03 07:37:39;0.00;0.00;0.62;0.00;0.00;0.62;5.90;3.43;;;23.30;26.30;;;;;;2231904;62;20360;-65
2024/04/03 07:40:09;0.00;0.00;0.62;0.00;0.00;0.62;4.60;2.80;;;23.30;26.30;;;;;;2232425;62;20387;-65
2024/04/03 07:42:36;0.00;0.00;0.62;0.00;0.00;0.62;5.20;2.27;;;23.30;26.30;;;;;;2232176;62;20360;-65
2024/04/03 07:45:04;0.00;0.00;0.62;0.00;0.00;0.62;3.97;3.00;;;23.30;26.30;;;;;;2231840;62;20392;-65
2024/04/03 07:47:31;0.00;0.00;0.62;0.00;0.00;0.62;6.80;3.30;;;23.30;26.30;;;;;;2232359;62;20368;-66
2024/04/03 07:49:57;0.00;0.00;0.62;0.00;0.00;0.62;4.03;2.60;;;23.30;26.30;;;;;;2232078;62;20804;-69
2024/04/03 07:52:23;0.00;0.00;0.62;0.00;0.00;0.62;3.50;2.77;;;23.30;26.30;;;;;;2231874;62;20371;-65
2024/04/03 07:54:49;0.00;0.00;0.62;0.00;0.00;0.62;6.03;2.80;;;23.30;26.80;;;;;;2232163;62;20439;-64
2024/04/03 07:57:17;0.00;0.00;0.62;0.00;0.00;0.62;4.63;3.27;;;23.30;26.30;;;;;;2232107;62;20455;-64
2024/04/03 07:59:44;0.00;0.00;0.62;0.00;0.00;0.62;4.40;3.47;;;23.30;26.30;;;;;;2231929;62;20383;-66
2024/04/03 08:02:10;0.00;0.00;0.62;0.00;0.00;0.62;5.93;3.40;;;23.30;26.30;;;;;;2232407;62;20356;-65
2024/04/03 08:04:36;0.00;0.00;0.62;0.00;0.00;0.62;3.70;3.00;;;23.30;26.30;;;;;;2232266;62;20380;-65
2024/04/03 08:07:03;0.00;0.00;0.62;0.00;0.00;0.62;5.70;3.27;;;23.30;26.40;;;;;;2231825;62;20647;-65
2024/04/03 08:09:31;0.00;0.00;0.62;0.00;0.00;0.62;4.23;2.93;;;23.30;26.40;;;;;;2232172;62;20356;-66
2024/04/03 08:11:57;0.00;0.00;0.62;0.00;0.00;0.62;3.67;2.87;;;23.30;26.40;;;;;;2232109;62;20361;-65
2024/04/03 08:14:24;0.00;0.00;0.62;0.00;0.00;0.62;3.10;2.20;;;23.30;26.40;;;;;;2231965;62;20364;-64
2024/04/03 08:16:51;0.00;0.00;0.62;0.00;0.00;0.62;3.87;2.93;;;23.40;26.50;;;;;;2232136;62;20371;-65
2024/04/03 08:19:17;0.00;0.00;0.62;0.00;0.00;0.62;5.27;3.63;;;23.40;26.50;;;;;;2232182;62;20391;-65
2024/04/03 08:21:44;0.00;0.00;0.62;0.00;0.00;0.62;4.40;3.30;;;23.40;26.50;;;;;;2231864;62;20376;-65
2024/04/03 08:24:10;0.00;0.00;0.62;0.00;0.00;0.62;3.53;2.67;;;23.40;27.00;;;;;;2232416;62;20420;-64
2024/04/03 08:26:37;0.00;0.00;0.62;0.00;0.00;0.62;4.60;3.67;;;23.40;26.50;;;;;;2232219;62;20380;-64
2024/04/03 08:29:03;0.00;0.00;0.62;0.00;0.00;0.62;4.50;3.20;;;23.40;26.50;;;;;;2231723;62;20361;-64
2024/04/03 08:31:30;0.00;0.00;0.62;0.00;0.00;0.62;6.60;3.00;;;23.40;26.50;;;;;;2232211;62;20804;-65
2024/04/03 08:33:59;0.00;0.00;0.62;0.00;0.00;0.62;4.47;3.10;;;23.40;26.50;;;;;;2232202;62;20365;-65
2024/04/03 08:36:26;0.00;0.00;0.62;0.00;0.00;0.62;4.67;3.03;;;23.40;26.50;;;;;;2231566;62;20443;-65
2024/04/03 08:38:52;0.00;0.00;0.62;0.00;0.00;0.62;3.63;3.03;;;23.40;26.50;;;;;;2232451;62;20360;-66
2024/04/03 08:41:18;0.00;0.00;0.62;0.00;0.00;0.62;4.60;3.47;;;23.40;26.50;;;;;;2232451;62;20467;-66
2024/04/03 08:43:47;0.00;0.00;0.62;0.00;0.00;0.62;4.87;3.63;;;23.40;26.50;;;;;;2231784;62;20390;-64
2024/04/03 08:46:14;0.00;0.00;0.62;0.00;0.00;0.62;4.20;3.50;;;23.40;26.50;;;;;;2232259;62;20448;-66
2024/04/03 08:48:41;0.00;0.00;0.62;0.00;0.00;0.62;4.33;3.40;;;23.40;26.60;;;;;;2232193;62;20423;-65
2024/04/03 08:51:08;0.00;0.00;0.62;0.00;0.00;0.62;4.33;2.97;;;23.40;26.60;;;;;;2231655;62;20388;-65
2024/04/03 08:53:35;0.00;0.00;0.62;0.00;0.00;0.62;4.73;3.37;;;23.40;26.60;;;;;;2232319;62;20368;-65
2024/04/03 08:56:01;0.00;0.00;0.62;0.00;0.00;0.62;4.27;3.07;;;23.40;26.60;;;;;;2232221;62;20400;-64
2024/04/03 08:58:27;0.00;0.00;0.62;0.00;0.00;0.62;3.43;2.80;;;23.40;26.60;;;;;;2231867;62;20399;-65
2024/04/03 09:00:53;0.00;0.00;0.62;0.00;0.00;0.62;3.53;3.10;;;23.40;26.60;;;;;;2231782;62;20380;-65
2024/04/03 09:03:20;0.00;0.00;0.62;0.00;0.00;0.62;5.20;4.33;;;23.40;26.60;;;;;;2232372;62;20602;-65
2024/04/03 09:05:49;0.00;0.00;0.62;0.00;0.00;0.62;2.70;2.30;;;23.40;26.60;;;;;;2231835;62;20392;-65
2024/04/03 09:08:15;0.00;0.00;0.62;0.00;0.00;0.62;5.43;3.00;;;23.40;26.60;;;;;;2231578;62;20364;-64
2024/04/03 09:10:56;0.00;0.00;0.62;0.00;0.00;0.62;4.20;3.30;;;23.40;26.60;;;;;;2232183;62;20392;-64
2024/04/03 09:13:22;0.00;0.00;0.62;0.00;0.00;0.62;4.63;3.30;;;23.40;26.70;;;;;;2231919;62;20364;-64
2024/04/03 09:15:52;0.00;0.00;0.62;0.00;0.00;0.62;5.10;3.40;;;23.40;26.70;;;;;;2232102;62;20360;-65
2024/04/03 09:18:19;0.00;0.00;0.62;0.00;0.00;0.62;4.00;3.07;;;23.40;26.70;;;;;;2231980;62;20371;-65
2024/04/03 09:20:50;0.00;0.00;0.62;0.00;0.00;0.62;3.93;2.73;;;23.40;26.70;;;;;;2231563;62;20380;-65
2024/04/03 09:23:17;0.00;0.00;0.62;0.00;0.00;0.62;4.03;3.10;;;23.40;26.70;;;;;;2232148;62;21012;-65
2024/04/03 09:25:44;0.00;0.00;0.62;0.00;0.00;0.62;3.63;2.87;;;23.40;26.70;;;;;;2232010;62;20391;-65
2024/04/03 09:28:11;0.00;0.00;0.62;0.00;0.00;0.62;4.47;3.07;;;23.40;26.80;;;;;;2231448;62;20360;-65
2024/04/03 09:30:41;0.00;0.00;0.62;0.00;0.00;0.62;3.93;2.83;;;23.40;26.70;;;;;;2231811;62;20402;-65
2024/04/03 09:33:07;0.00;0.00;0.62;0.00;0.00;0.62;3.87;2.73;;;23.50;26.80;;;;;;2232141;62;20368;-65
2024/04/03 09:35:35;0.00;0.00;0.62;0.00;0.00;0.62;3.67;3.07;;;23.40;26.80;;;;;;2231507;62;20356;-65
2024/04/03 09:38:03;0.00;0.00;0.62;0.00;0.00;0.62;5.37;2.97;;;23.40;26.80;;;;;;2231867;62;20356;-65
2024/04/03 09:40:31;0.00;0.00;0.62;0.00;0.00;0.62;4.40;2.73;;;23.40;26.80;;;;;;2232106;62;20411;-65
2024/04/03 09:43:03;0.00;0.00;0.62;0.00;0.00;0.62;3.00;2.50;;;23.50;26.90;;;;;;2231564;62;20447;-65
2024/04/03 09:45:30;0.00;0.00;0.62;0.00;0.00;0.62;5.03;3.03;;;23.40;26.80;;;;;;2231913;62;20907;-65